sensor_id;sensor_type;location;lat;lon;timestamp;P1;durP1;ratioP1;P2;durP2;ratioP2
15633;SDS011;14654;48.898;8.308;2023-11-22T00:02:15;9.67;;;8.77;;
15633;SDS011;14654;48.898;8.308;2023-11-22T00:04:41;10.50;;;8.73;;
15633;SDS011;14654;48.898;8.308;2023-11-22T00:07:06;9.07;;;8.17;;
15633;SDS011;14654;48.898;8.308;2023-11-22T00:09:32;8.93;;;8.00;;
15633;SDS011;14654;48.898;8.308;2023-11-22T00:11:57;8.10;;;7.30;;
15633;SDS011;14654;48.898;8.308;2023-11-22T00:14:25;8.43;;;7.63;;
15633;SDS011;14654;48.898;8.308;2023-11-22T00:16:51;7.77;;;7.07;;
15633;SDS011;14654;48.898;8.308;2023-11-22T00:19:16;7.40;;;6.63;;
15633;SDS011;14654;48.898;8.308;2023-11-22T00:21:43;6.60;;;6.00;;
15633;SDS011;14654;48.898;8.308;2023-11-22T00:24:09;9.83;;;7.53;;
15633;SDS011;14654;48.898;8.308;2023-11-22T00:26:35;8.37;;;7.30;;
15633;SDS011;14654;48.898;8.308;2023-11-22T00:29:00;7.43;;;6.63;;
15633;SDS011;14654;48.898;8.308;2023-11-22T00:31:25;7.57;;;6.87;;
15633;SDS011;14654;48.898;8.308;2023-11-22T00:33:51;7.83;;;7.10;;
15633;SDS011;14654;48.898;8.308;2023-11-22T00:36:16;7.50;;;6.80;;
15633;SDS011;14654;48.898;8.308;2023-11-22T00:38:42;7.57;;;6.80;;
15633;SDS011;14654;48.898;8.308;2023-11-22T00:41:07;7.30;;;6.40;;
15633;SDS011;14654;48.898;8.308;2023-11-22T00:43:36;7.27;;;6.50;;
15633;SDS011;14654;48.898;8.308;2023-11-22T00:46:02;8.03;;;7.17;;
15633;SDS011;14654;48.898;8.308;2023-11-22T00:48:31;8.80;;;7.90;;
15633;SDS011;14654;48.898;8.308;2023-11-22T00:50:56;9.23;;;8.33;;
15633;SDS011;14654;48.898;8.308;2023-11-22T00:53:21;11.37;;;9.23;;
15633;SDS011;14654;48.898;8.308;2023-11-22T00:55:48;8.70;;;7.90;;
15633;SDS011;14654;48.898;8.308;2023-11-22T00:58:13;8.20;;;7.40;;
15633;SDS011;14654;48.898;8.308;2023-11-22T01:00:39;8.03;;;7.23;;
15633;SDS011;14654;48.898;8.308;2023-11-22T01:03:04;8.50;;;7.53;;
15633;SDS011;14654;48.898;8.308;2023-11-22T01:05:30;9.07;;;8.17;;
15633;SDS011;14654;48.898;8.308;2023-11-22T01:07:55;8.97;;;8.07;;
15633;SDS011;14654;48.898;8.308;2023-11-22T01:10:20;10.93;;;9.37;;
15633;SDS011;14654;48.898;8.308;2023-11-22T01:12:46;10.83;;;9.70;;
15633;SDS011;14654;48.898;8.308;2023-11-22T01:15:11;10.47;;;9.37;;
15633;SDS011;14654;48.898;8.308;2023-11-22T01:17:36;10.53;;;9.43;;
15633;SDS011;14654;48.898;8.308;2023-11-22T01:20:02;10.00;;;9.00;;
15633;SDS011;14654;48.898;8.308;2023-11-22T01:22:28;10.90;;;9.70;;
15633;SDS011;14654;48.898;8.308;2023-11-22T01:24:54;10.03;;;9.03;;
15633;SDS011;14654;48.898;8.308;2023-11-22T01:27:19;13.40;;;10.63;;
15633;SDS011;14654;48.898;8.308;2023-11-22T01:29:44;19.73;;;11.57;;
15633;SDS011;14654;48.898;8.308;2023-11-22T01:32:10;15.53;;;12.23;;
15633;SDS011;14654;48.898;8.308;2023-11-22T01:34:36;15.47;;;13.30;;
15633;SDS011;14654;48.898;8.308;2023-11-22T01:37:01;14.83;;;12.63;;
15633;SDS011;14654;48.898;8.308;2023-11-22T01:39:26;14.43;;;12.23;;
15633;SDS011;14654;48.898;8.308;2023-11-22T01:41:52;17.00;;;13.53;;
15633;SDS011;14654;48.898;8.308;2023-11-22T01:44:18;19.73;;;14.47;;
15633;SDS011;14654;48.898;8.308;2023-11-22T01:46:43;19.23;;;15.00;;
15633;SDS011;14654;48.898;8.308;2023-11-22T01:49:10;19.13;;;14.80;;
15633;SDS011;14654;48.898;8.308;2023-11-22T01:51:37;19.43;;;15.23;;
15633;SDS011;14654;48.898;8.308;2023-11-22T01:54:03;24.33;;;17.13;;
15633;SDS011;14654;48.898;8.308;2023-11-22T01:56:29;21.83;;;15.63;;
15633;SDS011;14654;48.898;8.308;2023-11-22T01:58:56;24.30;;;17.23;;
15633;SDS011;14654;48.898;8.308;2023-11-22T02:01:25;25.03;;;18.23;;
15633;SDS011;14654;48.898;8.308;2023-11-22T02:03:51;28.17;;;18.97;;
15633;SDS011;14654;48.898;8.308;2023-11-22T02:06:18;30.43;;;19.87;;
15633;SDS011;14654;48.898;8.308;2023-11-22T02:08:46;28.90;;;19.77;;
15633;SDS011;14654;48.898;8.308;2023-11-22T02:11:12;29.77;;;19.80;;
15633;SDS011;14654;48.898;8.308;2023-11-22T02:13:37;28.17;;;18.53;;
15633;SDS011;14654;48.898;8.308;2023-11-22T02:16:03;27.33;;;19.20;;
15633;SDS011;14654;48.898;8.308;2023-11-22T02:18:28;27.40;;;18.80;;
15633;SDS011;14654;48.898;8.308;2023-11-22T02:20:54;28.63;;;17.63;;
15633;SDS011;14654;48.898;8.308;2023-11-22T02:23:20;25.33;;;16.87;;
15633;SDS011;14654;48.898;8.308;2023-11-22T02:25:45;33.13;;;19.97;;
15633;SDS011;14654;48.898;8.308;2023-11-22T02:28:13;31.13;;;19.33;;
15633;SDS011;14654;48.898;8.308;2023-11-22T02:30:39;31.23;;;18.13;;
15633;SDS011;14654;48.898;8.308;2023-11-22T02:33:04;32.73;;;19.00;;
15633;SDS011;14654;48.898;8.308;2023-11-22T02:35:30;30.27;;;18.07;;
15633;SDS011;14654;48.898;8.308;2023-11-22T02:37:57;29.90;;;17.83;;
15633;SDS011;14654;48.898;8.308;2023-11-22T02:40:25;29.70;;;17.93;;
15633;SDS011;14654;48.898;8.308;2023-11-22T02:42:52;31.20;;;18.07;;
15633;SDS011;14654;48.898;8.308;2023-11-22T02:45:19;30.23;;;18.00;;
15633;SDS011;14654;48.898;8.308;2023-11-22T02:47:49;29.23;;;17.63;;
15633;SDS011;14654;48.898;8.308;2023-11-22T02:50:14;26.63;;;17.13;;
15633;SDS011;14654;48.898;8.308;2023-11-22T02:52:40;28.53;;;17.47;;
15633;SDS011;14654;48.898;8.308;2023-11-22T02:55:07;30.20;;;17.40;;
15633;SDS011;14654;48.898;8.308;2023-11-22T02:57:34;28.37;;;17.07;;
15633;SDS011;14654;48.898;8.308;2023-11-22T03:00:00;27.13;;;18.37;;
15633;SDS011;14654;48.898;8.308;2023-11-22T03:02:25;27.53;;;16.23;;
15633;SDS011;14654;48.898;8.308;2023-11-22T03:04:51;28.33;;;16.87;;
15633;SDS011;14654;48.898;8.308;2023-11-22T03:07:16;30.27;;;18.13;;
15633;SDS011;14654;48.898;8.308;2023-11-22T03:09:42;30.33;;;17.10;;
15633;SDS011;14654;48.898;8.308;2023-11-22T03:12:09;27.30;;;16.57;;
15633;SDS011;14654;48.898;8.308;2023-11-22T03:14:35;28.73;;;16.93;;
15633;SDS011;14654;48.898;8.308;2023-11-22T03:17:00;24.40;;;15.67;;
15633;SDS011;14654;48.898;8.308;2023-11-22T03:19:26;25.00;;;15.40;;
15633;SDS011;14654;48.898;8.308;2023-11-22T03:21:51;24.00;;;15.00;;
15633;SDS011;14654;48.898;8.308;2023-11-22T03:24:16;30.77;;;16.63;;
15633;SDS011;14654;48.898;8.308;2023-11-22T03:26:42;25.20;;;15.33;;
15633;SDS011;14654;48.898;8.308;2023-11-22T03:29:07;26.67;;;16.37;;
15633;SDS011;14654;48.898;8.308;2023-11-22T03:31:33;25.43;;;15.80;;
15633;SDS011;14654;48.898;8.308;2023-11-22T03:33:58;24.13;;;15.40;;
15633;SDS011;14654;48.898;8.308;2023-11-22T03:36:24;31.30;;;18.37;;
15633;SDS011;14654;48.898;8.308;2023-11-22T03:38:50;34.87;;;18.83;;
15633;SDS011;14654;48.898;8.308;2023-11-22T03:41:16;28.50;;;17.30;;
15633;SDS011;14654;48.898;8.308;2023-11-22T03:43:44;29.00;;;17.03;;
15633;SDS011;14654;48.898;8.308;2023-11-22T03:46:09;37.70;;;18.83;;
15633;SDS011;14654;48.898;8.308;2023-11-22T03:48:36;28.60;;;18.33;;
15633;SDS011;14654;48.898;8.308;2023-11-22T03:51:01;30.27;;;18.57;;
15633;SDS011;14654;48.898;8.308;2023-11-22T03:53:27;34.23;;;19.07;;
15633;SDS011;14654;48.898;8.308;2023-11-22T03:55:52;38.77;;;21.17;;
15633;SDS011;14654;48.898;8.308;2023-11-22T03:58:18;30.20;;;18.87;;
15633;SDS011;14654;48.898;8.308;2023-11-22T04:00:43;38.83;;;20.77;;
15633;SDS011;14654;48.898;8.308;2023-11-22T04:03:09;34.63;;;21.00;;
15633;SDS011;14654;48.898;8.308;2023-11-22T04:05:34;40.17;;;22.20;;
15633;SDS011;14654;48.898;8.308;2023-11-22T04:07:59;37.00;;;20.67;;
15633;SDS011;14654;48.898;8.308;2023-11-22T04:10:25;41.47;;;22.53;;
15633;SDS011;14654;48.898;8.308;2023-11-22T04:12:50;40.97;;;23.57;;
15633;SDS011;14654;48.898;8.308;2023-11-22T04:15:16;47.40;;;24.27;;
15633;SDS011;14654;48.898;8.308;2023-11-22T04:17:41;56.43;;;28.33;;
15633;SDS011;14654;48.898;8.308;2023-11-22T04:20:07;47.10;;;27.60;;
15633;SDS011;14654;48.898;8.308;2023-11-22T04:22:44;51.63;;;28.87;;
15633;SDS011;14654;48.898;8.308;2023-11-22T04:25:12;51.60;;;28.70;;
15633;SDS011;14654;48.898;8.308;2023-11-22T04:27:41;52.80;;;29.53;;
15633;SDS011;14654;48.898;8.308;2023-11-22T04:30:07;50.13;;;28.30;;
15633;SDS011;14654;48.898;8.308;2023-11-22T04:32:39;58.37;;;28.10;;
15633;SDS011;14654;48.898;8.308;2023-11-22T04:35:05;50.53;;;27.30;;
15633;SDS011;14654;48.898;8.308;2023-11-22T04:37:31;54.23;;;28.50;;
15633;SDS011;14654;48.898;8.308;2023-11-22T04:39:59;50.37;;;28.73;;
15633;SDS011;14654;48.898;8.308;2023-11-22T04:42:26;50.77;;;27.77;;
15633;SDS011;14654;48.898;8.308;2023-11-22T04:44:52;57.53;;;29.17;;
15633;SDS011;14654;48.898;8.308;2023-11-22T04:47:18;48.60;;;28.77;;
15633;SDS011;14654;48.898;8.308;2023-11-22T04:49:44;53.10;;;28.73;;
15633;SDS011;14654;48.898;8.308;2023-11-22T04:52:09;49.20;;;27.80;;
15633;SDS011;14654;48.898;8.308;2023-11-22T04:54:35;51.20;;;27.37;;
15633;SDS011;14654;48.898;8.308;2023-11-22T04:57:00;46.47;;;26.10;;
15633;SDS011;14654;48.898;8.308;2023-11-22T04:59:25;45.47;;;26.30;;
15633;SDS011;14654;48.898;8.308;2023-11-22T05:01:51;45.17;;;25.40;;
15633;SDS011;14654;48.898;8.308;2023-11-22T05:04:16;48.33;;;25.80;;
15633;SDS011;14654;48.898;8.308;2023-11-22T05:06:43;43.70;;;24.23;;
15633;SDS011;14654;48.898;8.308;2023-11-22T05:09:09;43.83;;;22.53;;
15633;SDS011;14654;48.898;8.308;2023-11-22T05:11:36;39.47;;;23.03;;
15633;SDS011;14654;48.898;8.308;2023-11-22T05:14:01;39.20;;;23.97;;
15633;SDS011;14654;48.898;8.308;2023-11-22T05:16:26;41.00;;;22.83;;
15633;SDS011;14654;48.898;8.308;2023-11-22T05:18:52;40.53;;;22.97;;
15633;SDS011;14654;48.898;8.308;2023-11-22T05:21:18;40.17;;;22.83;;
15633;SDS011;14654;48.898;8.308;2023-11-22T05:23:43;41.27;;;23.50;;
15633;SDS011;14654;48.898;8.308;2023-11-22T05:26:08;38.40;;;23.97;;
15633;SDS011;14654;48.898;8.308;2023-11-22T05:28:34;45.43;;;23.87;;
15633;SDS011;14654;48.898;8.308;2023-11-22T05:30:59;43.00;;;24.30;;
15633;SDS011;14654;48.898;8.308;2023-11-22T05:33:25;41.57;;;23.77;;
15633;SDS011;14654;48.898;8.308;2023-11-22T05:35:50;46.10;;;25.10;;
15633;SDS011;14654;48.898;8.308;2023-11-22T05:38:15;45.13;;;25.30;;
15633;SDS011;14654;48.898;8.308;2023-11-22T05:40:41;42.80;;;24.53;;
15633;SDS011;14654;48.898;8.308;2023-11-22T05:43:08;42.00;;;24.43;;
15633;SDS011;14654;48.898;8.308;2023-11-22T05:45:34;47.27;;;27.13;;
15633;SDS011;14654;48.898;8.308;2023-11-22T05:48:00;50.00;;;27.07;;
15633;SDS011;14654;48.898;8.308;2023-11-22T05:50:25;44.27;;;26.47;;
15633;SDS011;14654;48.898;8.308;2023-11-22T05:52:50;46.63;;;25.33;;
15633;SDS011;14654;48.898;8.308;2023-11-22T05:55:16;48.17;;;26.40;;
15633;SDS011;14654;48.898;8.308;2023-11-22T05:57:43;53.17;;;26.90;;
15633;SDS011;14654;48.898;8.308;2023-11-22T06:00:09;50.27;;;27.83;;
15633;SDS011;14654;48.898;8.308;2023-11-22T06:02:35;47.13;;;27.20;;
15633;SDS011;14654;48.898;8.308;2023-11-22T06:05:02;47.93;;;26.63;;
15633;SDS011;14654;48.898;8.308;2023-11-22T06:07:28;50.90;;;27.43;;
15633;SDS011;14654;48.898;8.308;2023-11-22T06:09:54;51.57;;;27.90;;
15633;SDS011;14654;48.898;8.308;2023-11-22T06:12:19;51.83;;;28.50;;
15633;SDS011;14654;48.898;8.308;2023-11-22T06:14:45;55.17;;;29.67;;
15633;SDS011;14654;48.898;8.308;2023-11-22T06:17:11;49.83;;;28.50;;
15633;SDS011;14654;48.898;8.308;2023-11-22T06:19:37;49.10;;;26.90;;
15633;SDS011;14654;48.898;8.308;2023-11-22T06:22:02;50.30;;;27.60;;
15633;SDS011;14654;48.898;8.308;2023-11-22T06:24:28;53.37;;;29.10;;
15633;SDS011;14654;48.898;8.308;2023-11-22T06:26:53;49.27;;;28.20;;
15633;SDS011;14654;48.898;8.308;2023-11-22T06:29:19;47.70;;;27.77;;
15633;SDS011;14654;48.898;8.308;2023-11-22T06:31:45;50.47;;;27.27;;
15633;SDS011;14654;48.898;8.308;2023-11-22T06:34:10;47.03;;;26.13;;
15633;SDS011;14654;48.898;8.308;2023-11-22T06:36:36;45.30;;;26.20;;
15633;SDS011;14654;48.898;8.308;2023-11-22T06:39:01;46.03;;;25.73;;
15633;SDS011;14654;48.898;8.308;2023-11-22T06:41:27;47.47;;;26.57;;
15633;SDS011;14654;48.898;8.308;2023-11-22T06:43:53;48.50;;;25.43;;
15633;SDS011;14654;48.898;8.308;2023-11-22T06:46:19;49.27;;;26.97;;
15633;SDS011;14654;48.898;8.308;2023-11-22T06:48:44;47.30;;;24.80;;
15633;SDS011;14654;48.898;8.308;2023-11-22T06:51:10;45.53;;;25.37;;
15633;SDS011;14654;48.898;8.308;2023-11-22T06:53:35;45.10;;;24.93;;
15633;SDS011;14654;48.898;8.308;2023-11-22T06:56:01;46.50;;;25.60;;
15633;SDS011;14654;48.898;8.308;2023-11-22T06:58:26;44.87;;;26.30;;
15633;SDS011;14654;48.898;8.308;2023-11-22T07:00:52;44.77;;;25.70;;
15633;SDS011;14654;48.898;8.308;2023-11-22T07:03:18;44.50;;;24.23;;
15633;SDS011;14654;48.898;8.308;2023-11-22T07:05:43;42.47;;;24.07;;
15633;SDS011;14654;48.898;8.308;2023-11-22T07:08:09;43.87;;;25.17;;
15633;SDS011;14654;48.898;8.308;2023-11-22T07:10:35;42.33;;;24.83;;
15633;SDS011;14654;48.898;8.308;2023-11-22T07:13:01;44.83;;;23.63;;
15633;SDS011;14654;48.898;8.308;2023-11-22T07:15:27;39.90;;;23.73;;
15633;SDS011;14654;48.898;8.308;2023-11-22T07:17:52;42.97;;;24.23;;
15633;SDS011;14654;48.898;8.308;2023-11-22T07:20:19;40.77;;;23.87;;
15633;SDS011;14654;48.898;8.308;2023-11-22T07:22:44;40.23;;;23.77;;
15633;SDS011;14654;48.898;8.308;2023-11-22T07:25:10;39.50;;;24.03;;
15633;SDS011;14654;48.898;8.308;2023-11-22T07:27:46;43.33;;;25.97;;
15633;SDS011;14654;48.898;8.308;2023-11-22T07:30:15;43.57;;;27.30;;
15633;SDS011;14654;48.898;8.308;2023-11-22T07:32:41;46.73;;;26.87;;
15633;SDS011;14654;48.898;8.308;2023-11-22T07:35:07;39.50;;;25.03;;
15633;SDS011;14654;48.898;8.308;2023-11-22T07:37:36;44.27;;;25.97;;
15633;SDS011;14654;48.898;8.308;2023-11-22T07:40:07;44.63;;;27.13;;
15633;SDS011;14654;48.898;8.308;2023-11-22T07:42:35;46.73;;;28.53;;
15633;SDS011;14654;48.898;8.308;2023-11-22T07:45:03;53.57;;;34.23;;
15633;SDS011;14654;48.898;8.308;2023-11-22T07:47:29;47.77;;;30.87;;
15633;SDS011;14654;48.898;8.308;2023-11-22T07:49:54;45.10;;;28.03;;
15633;SDS011;14654;48.898;8.308;2023-11-22T07:52:23;47.20;;;29.43;;
15633;SDS011;14654;48.898;8.308;2023-11-22T07:54:54;43.63;;;28.47;;
15633;SDS011;14654;48.898;8.308;2023-11-22T07:57:22;46.97;;;31.67;;
15633;SDS011;14654;48.898;8.308;2023-11-22T07:59:48;50.67;;;30.93;;
15633;SDS011;14654;48.898;8.308;2023-11-22T08:02:14;47.97;;;30.63;;
15633;SDS011;14654;48.898;8.308;2023-11-22T08:04:43;47.20;;;29.63;;
15633;SDS011;14654;48.898;8.308;2023-11-22T08:07:10;49.33;;;30.03;;
15633;SDS011;14654;48.898;8.308;2023-11-22T08:09:38;43.73;;;27.33;;
15633;SDS011;14654;48.898;8.308;2023-11-22T08:12:03;43.03;;;28.33;;
15633;SDS011;14654;48.898;8.308;2023-11-22T08:14:29;38.67;;;23.60;;
15633;SDS011;14654;48.898;8.308;2023-11-22T08:16:55;38.83;;;24.23;;
15633;SDS011;14654;48.898;8.308;2023-11-22T08:19:21;34.80;;;22.17;;
15633;SDS011;14654;48.898;8.308;2023-11-22T08:21:48;30.97;;;19.93;;
15633;SDS011;14654;48.898;8.308;2023-11-22T08:24:14;31.90;;;20.53;;
15633;SDS011;14654;48.898;8.308;2023-11-22T08:26:39;30.83;;;20.67;;
15633;SDS011;14654;48.898;8.308;2023-11-22T08:29:05;28.60;;;18.70;;
15633;SDS011;14654;48.898;8.308;2023-11-22T08:31:32;27.23;;;18.27;;
15633;SDS011;14654;48.898;8.308;2023-11-22T08:33:59;26.17;;;18.37;;
15633;SDS011;14654;48.898;8.308;2023-11-22T08:36:25;26.27;;;17.27;;
15633;SDS011;14654;48.898;8.308;2023-11-22T08:38:50;27.90;;;16.83;;
15633;SDS011;14654;48.898;8.308;2023-11-22T08:41:15;22.73;;;16.43;;
15633;SDS011;14654;48.898;8.308;2023-11-22T08:43:42;24.20;;;15.47;;
15633;SDS011;14654;48.898;8.308;2023-11-22T08:46:07;22.07;;;14.23;;
15633;SDS011;14654;48.898;8.308;2023-11-22T08:48:33;22.80;;;16.17;;
15633;SDS011;14654;48.898;8.308;2023-11-22T08:51:00;22.73;;;15.67;;
15633;SDS011;14654;48.898;8.308;2023-11-22T08:53:26;25.10;;;16.63;;
15633;SDS011;14654;48.898;8.308;2023-11-22T08:55:51;23.27;;;16.40;;
15633;SDS011;14654;48.898;8.308;2023-11-22T08:58:19;26.47;;;17.37;;
15633;SDS011;14654;48.898;8.308;2023-11-22T09:00:45;30.00;;;18.80;;
15633;SDS011;14654;48.898;8.308;2023-11-22T09:03:13;27.93;;;18.87;;
15633;SDS011;14654;48.898;8.308;2023-11-22T09:05:39;29.37;;;20.10;;
15633;SDS011;14654;48.898;8.308;2023-11-22T09:08:05;28.20;;;18.87;;
15633;SDS011;14654;48.898;8.308;2023-11-22T09:10:30;27.00;;;17.47;;
15633;SDS011;14654;48.898;8.308;2023-11-22T09:12:55;22.90;;;16.33;;
15633;SDS011;14654;48.898;8.308;2023-11-22T09:15:24;26.57;;;16.27;;
15633;SDS011;14654;48.898;8.308;2023-11-22T09:17:51;22.67;;;15.87;;
15633;SDS011;14654;48.898;8.308;2023-11-22T09:20:19;21.00;;;14.87;;
15633;SDS011;14654;48.898;8.308;2023-11-22T09:22:48;20.30;;;14.33;;
15633;SDS011;14654;48.898;8.308;2023-11-22T09:25:19;18.37;;;13.13;;
15633;SDS011;14654;48.898;8.308;2023-11-22T09:27:50;21.87;;;14.40;;
15633;SDS011;14654;48.898;8.308;2023-11-22T09:30:19;16.50;;;12.63;;
15633;SDS011;14654;48.898;8.308;2023-11-22T09:35:30;17.03;;;12.47;;
15633;SDS011;14654;48.898;8.308;2023-11-22T09:37:57;17.73;;;11.93;;
15633;SDS011;14654;48.898;8.308;2023-11-22T09:40:22;13.97;;;10.90;;
15633;SDS011;14654;48.898;8.308;2023-11-22T09:42:48;16.13;;;11.40;;
15633;SDS011;14654;48.898;8.308;2023-11-22T09:45:19;14.37;;;11.33;;
15633;SDS011;14654;48.898;8.308;2023-11-22T09:47:45;13.73;;;10.57;;
15633;SDS011;14654;48.898;8.308;2023-11-22T09:50:19;13.30;;;10.53;;
15633;SDS011;14654;48.898;8.308;2023-11-22T09:52:50;14.20;;;11.43;;
15633;SDS011;14654;48.898;8.308;2023-11-22T09:55:19;13.07;;;10.97;;
15633;SDS011;14654;48.898;8.308;2023-11-22T09:57:47;15.60;;;11.97;;
15633;SDS011;14654;48.898;8.308;2023-11-22T10:00:13;14.97;;;11.40;;
15633;SDS011;14654;48.898;8.308;2023-11-22T10:02:44;13.67;;;10.33;;
15633;SDS011;14654;48.898;8.308;2023-11-22T10:05:09;13.13;;;10.93;;
15633;SDS011;14654;48.898;8.308;2023-11-22T10:07:36;12.67;;;10.33;;
15633;SDS011;14654;48.898;8.308;2023-11-22T10:10:03;13.47;;;10.60;;
15633;SDS011;14654;48.898;8.308;2023-11-22T10:12:30;9.33;;;8.40;;
15633;SDS011;14654;48.898;8.308;2023-11-22T10:15:10;12.37;;;10.53;;
15633;SDS011;14654;48.898;8.308;2023-11-22T10:17:37;12.77;;;9.07;;
15633;SDS011;14654;48.898;8.308;2023-11-22T10:20:02;11.37;;;9.93;;
15633;SDS011;14654;48.898;8.308;2023-11-22T10:22:28;10.73;;;9.37;;
15633;SDS011;14654;48.898;8.308;2023-11-22T10:24:55;11.57;;;10.27;;
15633;SDS011;14654;48.898;8.308;2023-11-22T10:27:25;10.70;;;9.60;;
15633;SDS011;14654;48.898;8.308;2023-11-22T10:29:51;11.63;;;10.20;;
15633;SDS011;14654;48.898;8.308;2023-11-22T10:32:16;12.33;;;9.53;;
15633;SDS011;14654;48.898;8.308;2023-11-22T10:34:42;9.43;;;8.33;;
15633;SDS011;14654;48.898;8.308;2023-11-22T10:37:07;9.10;;;8.20;;
15633;SDS011;14654;48.898;8.308;2023-11-22T10:39:34;9.23;;;8.30;;
15633;SDS011;14654;48.898;8.308;2023-11-22T10:42:00;8.73;;;7.87;;
15633;SDS011;14654;48.898;8.308;2023-11-22T10:44:30;11.30;;;9.07;;
15633;SDS011;14654;48.898;8.308;2023-11-22T10:46:58;11.73;;;7.70;;
15633;SDS011;14654;48.898;8.308;2023-11-22T10:49:25;8.73;;;7.83;;
15633;SDS011;14654;48.898;8.308;2023-11-22T10:51:51;8.13;;;6.53;;
15633;SDS011;14654;48.898;8.308;2023-11-22T10:54:18;15.43;;;9.33;;
15633;SDS011;14654;48.898;8.308;2023-11-22T10:56:51;8.07;;;7.27;;
15633;SDS011;14654;48.898;8.308;2023-11-22T10:59:21;8.37;;;6.70;;
15633;SDS011;14654;48.898;8.308;2023-11-22T11:01:48;10.37;;;7.13;;
15633;SDS011;14654;48.898;8.308;2023-11-22T11:04:27;7.33;;;6.60;;
15633;SDS011;14654;48.898;8.308;2023-11-22T11:06:58;7.43;;;6.73;;
15633;SDS011;14654;48.898;8.308;2023-11-22T11:09:27;7.13;;;6.43;;
15633;SDS011;14654;48.898;8.308;2023-11-22T11:11:57;7.03;;;6.20;;
15633;SDS011;14654;48.898;8.308;2023-11-22T11:14:23;6.50;;;5.90;;
15633;SDS011;14654;48.898;8.308;2023-11-22T11:16:51;7.40;;;6.43;;
15633;SDS011;14654;48.898;8.308;2023-11-22T11:19:19;5.93;;;5.33;;
15633;SDS011;14654;48.898;8.308;2023-11-22T11:21:49;6.33;;;5.73;;
15633;SDS011;14654;48.898;8.308;2023-11-22T11:24:15;7.83;;;6.30;;
15633;SDS011;14654;48.898;8.308;2023-11-22T11:26:41;9.00;;;5.30;;
15633;SDS011;14654;48.898;8.308;2023-11-22T11:29:29;6.90;;;6.20;;
15633;SDS011;14654;48.898;8.308;2023-11-22T11:31:55;7.03;;;6.33;;
15633;SDS011;14654;48.898;8.308;2023-11-22T11:34:21;6.10;;;5.17;;
15633;SDS011;14654;48.898;8.308;2023-11-22T11:36:52;6.77;;;5.57;;
15633;SDS011;14654;48.898;8.308;2023-11-22T11:39:27;6.87;;;6.17;;
15633;SDS011;14654;48.898;8.308;2023-11-22T11:42:30;6.97;;;5.63;;
15633;SDS011;14654;48.898;8.308;2023-11-22T11:45:02;5.37;;;4.87;;
15633;SDS011;14654;48.898;8.308;2023-11-22T11:47:31;5.03;;;4.53;;
15633;SDS011;14654;48.898;8.308;2023-11-22T11:49:56;6.30;;;4.93;;
15633;SDS011;14654;48.898;8.308;2023-11-22T11:52:21;6.03;;;4.63;;
15633;SDS011;14654;48.898;8.308;2023-11-22T11:54:48;6.07;;;4.83;;
15633;SDS011;14654;48.898;8.308;2023-11-22T11:57:15;7.17;;;4.67;;
15633;SDS011;14654;48.898;8.308;2023-11-22T11:59:41;5.13;;;4.63;;
15633;SDS011;14654;48.898;8.308;2023-11-22T12:02:07;4.83;;;4.33;;
15633;SDS011;14654;48.898;8.308;2023-11-22T12:04:33;5.27;;;4.30;;
15633;SDS011;14654;48.898;8.308;2023-11-22T12:06:59;4.77;;;4.37;;
15633;SDS011;14654;48.898;8.308;2023-11-22T12:09:24;4.53;;;4.13;;
15633;SDS011;14654;48.898;8.308;2023-11-22T12:11:50;4.53;;;4.13;;
15633;SDS011;14654;48.898;8.308;2023-11-22T12:14:25;5.87;;;4.40;;
15633;SDS011;14654;48.898;8.308;2023-11-22T12:16:51;4.70;;;4.23;;
15633;SDS011;14654;48.898;8.308;2023-11-22T12:19:25;4.83;;;4.30;;
15633;SDS011;14654;48.898;8.308;2023-11-22T12:21:52;5.77;;;4.00;;
15633;SDS011;14654;48.898;8.308;2023-11-22T12:24:18;4.73;;;4.23;;
15633;SDS011;14654;48.898;8.308;2023-11-22T12:26:45;5.47;;;3.60;;
15633;SDS011;14654;48.898;8.308;2023-11-22T12:29:12;5.40;;;4.27;;
15633;SDS011;14654;48.898;8.308;2023-11-22T12:31:46;4.10;;;3.70;;
15633;SDS011;14654;48.898;8.308;2023-11-22T12:34:15;4.60;;;4.17;;
15633;SDS011;14654;48.898;8.308;2023-11-22T12:36:42;5.03;;;4.27;;
15633;SDS011;14654;48.898;8.308;2023-11-22T12:39:08;5.60;;;4.67;;
15633;SDS011;14654;48.898;8.308;2023-11-22T12:41:42;5.60;;;4.47;;
15633;SDS011;14654;48.898;8.308;2023-11-22T12:44:15;5.00;;;4.50;;
15633;SDS011;14654;48.898;8.308;2023-11-22T12:46:59;5.03;;;4.50;;
15633;SDS011;14654;48.898;8.308;2023-11-22T12:49:29;4.97;;;4.33;;
15633;SDS011;14654;48.898;8.308;2023-11-22T12:51:55;4.30;;;3.70;;
15633;SDS011;14654;48.898;8.308;2023-11-22T12:54:22;5.20;;;4.47;;
15633;SDS011;14654;48.898;8.308;2023-11-22T12:56:51;6.47;;;4.50;;
15633;SDS011;14654;48.898;8.308;2023-11-22T12:59:23;5.30;;;4.30;;
15633;SDS011;14654;48.898;8.308;2023-11-22T13:01:49;4.30;;;3.90;;
15633;SDS011;14654;48.898;8.308;2023-11-22T13:04:15;4.10;;;3.70;;
15633;SDS011;14654;48.898;8.308;2023-11-22T13:06:41;4.47;;;4.07;;
15633;SDS011;14654;48.898;8.308;2023-11-22T13:09:07;5.50;;;4.07;;
15633;SDS011;14654;48.898;8.308;2023-11-22T13:11:39;4.53;;;3.70;;
15633;SDS011;14654;48.898;8.308;2023-11-22T13:14:05;4.40;;;4.00;;
15633;SDS011;14654;48.898;8.308;2023-11-22T13:16:31;6.27;;;4.20;;
15633;SDS011;14654;48.898;8.308;2023-11-22T13:18:57;6.80;;;4.50;;
15633;SDS011;14654;48.898;8.308;2023-11-22T13:21:22;4.23;;;3.63;;
15633;SDS011;14654;48.898;8.308;2023-11-22T13:23:48;4.63;;;3.63;;
15633;SDS011;14654;48.898;8.308;2023-11-22T13:26:15;5.83;;;4.07;;
15633;SDS011;14654;48.898;8.308;2023-11-22T13:28:41;4.70;;;3.73;;
15633;SDS011;14654;48.898;8.308;2023-11-22T13:31:07;5.53;;;4.03;;
15633;SDS011;14654;48.898;8.308;2023-11-22T13:33:33;4.33;;;3.80;;
15633;SDS011;14654;48.898;8.308;2023-11-22T13:35:59;4.73;;;4.33;;
15633;SDS011;14654;48.898;8.308;2023-11-22T13:38:24;5.03;;;4.27;;
15633;SDS011;14654;48.898;8.308;2023-11-22T13:40:49;5.47;;;4.93;;
15633;SDS011;14654;48.898;8.308;2023-11-22T13:43:15;5.47;;;4.23;;
15633;SDS011;14654;48.898;8.308;2023-11-22T13:45:42;5.13;;;4.20;;
15633;SDS011;14654;48.898;8.308;2023-11-22T13:48:07;6.07;;;4.80;;
15633;SDS011;14654;48.898;8.308;2023-11-22T13:50:35;4.53;;;4.13;;
15633;SDS011;14654;48.898;8.308;2023-11-22T13:53:01;4.40;;;3.93;;
15633;SDS011;14654;48.898;8.308;2023-11-22T13:55:30;4.90;;;4.10;;
15633;SDS011;14654;48.898;8.308;2023-11-22T13:57:57;4.30;;;3.90;;
15633;SDS011;14654;48.898;8.308;2023-11-22T14:00:25;5.87;;;4.17;;
15633;SDS011;14654;48.898;8.308;2023-11-22T14:02:54;4.60;;;4.20;;
15633;SDS011;14654;48.898;8.308;2023-11-22T14:05:22;4.97;;;4.47;;
15633;SDS011;14654;48.898;8.308;2023-11-22T14:07:54;4.57;;;4.10;;
15633;SDS011;14654;48.898;8.308;2023-11-22T14:10:19;6.87;;;3.53;;
15633;SDS011;14654;48.898;8.308;2023-11-22T14:12:47;5.33;;;4.23;;
15633;SDS011;14654;48.898;8.308;2023-11-22T14:15:16;4.83;;;4.27;;
15633;SDS011;14654;48.898;8.308;2023-11-22T14:17:42;4.60;;;4.10;;
15633;SDS011;14654;48.898;8.308;2023-11-22T14:20:08;6.40;;;4.67;;
15633;SDS011;14654;48.898;8.308;2023-11-22T14:22:37;5.40;;;4.73;;
15633;SDS011;14654;48.898;8.308;2023-11-22T14:25:07;4.63;;;4.10;;
15633;SDS011;14654;48.898;8.308;2023-11-22T14:27:36;4.70;;;3.80;;
15633;SDS011;14654;48.898;8.308;2023-11-22T14:30:06;5.27;;;4.77;;
15633;SDS011;14654;48.898;8.308;2023-11-22T14:32:33;5.17;;;4.67;;